createdAt,value
2023-10-23T00:02:14.244Z,62.60
2023-10-23T00:04:42.806Z,62.70
2023-10-23T00:07:11.472Z,60.90
2023-10-23T00:09:39.764Z,62.60
2023-10-23T00:12:09.986Z,63.80
2023-10-23T00:14:38.355Z,61.40
2023-10-23T00:17:06.703Z,65.30
2023-10-23T00:19:35.042Z,62.10
2023-10-23T00:22:03.345Z,60.70
2023-10-23T00:24:31.565Z,58.20
2023-10-23T00:26:59.776Z,54.80
2023-10-23T00:29:27.942Z,61.10
2023-10-23T00:31:56.025Z,56.00
2023-10-23T00:34:24.145Z,52.00
2023-10-23T00:36:52.261Z,54.90
2023-10-23T00:39:20.442Z,52.50
2023-10-23T00:41:48.575Z,53.20
2023-10-23T00:44:16.836Z,53.80
2023-10-23T00:46:45.474Z,51.10
2023-10-23T00:49:13.772Z,51.20
2023-10-23T00:51:42.096Z,47.30
2023-10-23T00:54:10.727Z,51.20
2023-10-23T00:56:39.085Z,51.40
2023-10-23T00:59:08.746Z,43.40
2023-10-23T01:01:37.533Z,41.20
2023-10-23T01:04:07.008Z,44.30
2023-10-23T01:06:35.238Z,40.50
2023-10-23T01:09:04.445Z,38.20
2023-10-23T01:11:32.727Z,38.40
2023-10-23T01:14:00.816Z,37.40
2023-10-23T01:16:29.187Z,37.60
2023-10-23T01:18:57.654Z,34.60
2023-10-23T01:21:26.284Z,35.60
2023-10-23T01:23:55.376Z,38.80
2023-10-23T01:26:24.246Z,35.60
2023-10-23T01:28:52.405Z,32.90
2023-10-23T01:31:20.533Z,30.70
2023-10-23T01:33:48.840Z,26.80
2023-10-23T01:36:17.006Z,28.40
2023-10-23T01:38:45.218Z,27.00
2023-10-23T01:41:13.286Z,26.90
2023-10-23T01:43:41.517Z,25.90
2023-10-23T01:46:09.806Z,23.30
2023-10-23T01:48:38.291Z,24.80
2023-10-23T01:51:06.475Z,24.90
2023-10-23T01:53:34.590Z,28.30
2023-10-23T01:56:08.698Z,19.70
2023-10-23T01:58:36.918Z,22.00
2023-10-23T02:01:05.206Z,18.20
2023-10-23T02:03:33.667Z,20.00
2023-10-23T02:06:01.912Z,18.90
2023-10-23T02:08:30.066Z,17.80
2023-10-23T02:10:58.418Z,18.60
2023-10-23T02:13:26.580Z,16.30
2023-10-23T02:15:54.770Z,18.10
2023-10-23T02:18:23.079Z,18.20
2023-10-23T02:20:51.877Z,18.00
2023-10-23T02:23:20.012Z,16.10
2023-10-23T02:25:48.249Z,16.70
2023-10-23T02:28:17.585Z,17.30
2023-10-23T02:30:45.922Z,14.50
2023-10-23T02:33:14.141Z,14.90
2023-10-23T02:35:42.409Z,14.40
2023-10-23T02:38:10.889Z,15.00
2023-10-23T02:40:39.084Z,15.30
2023-10-23T02:43:07.260Z,12.70
2023-10-23T02:45:35.571Z,15.30
2023-10-23T02:48:03.895Z,14.10
2023-10-23T02:50:32.354Z,16.30
2023-10-23T02:53:00.533Z,13.70
2023-10-23T02:55:28.756Z,16.00
2023-10-23T02:57:56.997Z,14.20
2023-10-23T03:00:25.376Z,13.30
2023-10-23T03:02:53.624Z,13.50
2023-10-23T03:05:22.130Z,14.00
2023-10-23T03:07:51.917Z,15.00
2023-10-23T03:10:21.094Z,12.00
2023-10-23T03:12:49.443Z,11.10
2023-10-23T03:15:17.730Z,13.60
2023-10-23T03:17:45.992Z,12.30
2023-10-23T03:20:14.559Z,11.20
2023-10-23T03:22:42.920Z,10.50
2023-10-23T03:25:11.839Z,12.90
2023-10-23T03:27:40.590Z,11.40
2023-10-23T03:30:09.392Z,10.80
2023-10-23T03:32:37.603Z,11.00
2023-10-23T03:35:06.179Z,10.80
2023-10-23T03:37:34.412Z,13.70
2023-10-23T03:40:02.657Z,13.10
2023-10-23T03:42:30.876Z,11.90
2023-10-23T03:44:59.123Z,11.60
2023-10-23T03:47:27.288Z,10.10
2023-10-23T03:49:55.387Z,10.50
2023-10-23T03:52:24.069Z,10.30
2023-10-23T03:54:52.205Z,13.40
2023-10-23T03:57:20.469Z,12.00
2023-10-23T03:59:48.635Z,12.80
2023-10-23T04:02:16.752Z,12.20
2023-10-23T04:04:44.964Z,10.60
2023-10-23T04:07:13.245Z,13.10
2023-10-23T04:09:42.180Z,17.30
2023-10-23T04:12:11.251Z,14.20
2023-10-23T04:14:39.398Z,12.50
2023-10-23T04:17:07.544Z,11.00
2023-10-23T04:19:35.810Z,10.70
2023-10-23T04:22:04.242Z,14.30
2023-10-23T04:24:32.598Z,18.50
2023-10-23T04:27:00.843Z,18.30
2023-10-23T04:29:28.963Z,15.90
2023-10-23T04:31:57.188Z,13.70
2023-10-23T04:34:25.488Z,14.70
2023-10-23T04:36:53.771Z,12.40
2023-10-23T04:39:21.959Z,15.80
2023-10-23T04:41:50.161Z,12.60
2023-10-23T04:44:20.574Z,15.00
2023-10-23T04:46:49.344Z,16.20
2023-10-23T04:49:17.547Z,15.10
2023-10-23T04:51:45.814Z,28.30
2023-10-23T04:54:13.967Z,29.50
2023-10-23T04:56:42.733Z,34.10
2023-10-23T04:59:11.228Z,32.30
2023-10-23T05:01:39.884Z,29.70
2023-10-23T05:04:08.229Z,22.90
2023-10-23T05:06:39.788Z,19.80
2023-10-23T05:09:08.158Z,18.70
2023-10-23T05:11:36.409Z,15.40
2023-10-23T05:14:05.243Z,15.70
2023-10-23T05:16:33.458Z,14.30
2023-10-23T05:19:01.632Z,12.60
2023-10-23T05:21:29.842Z,14.10
2023-10-23T05:23:57.918Z,14.20
2023-10-23T05:26:26.406Z,14.70
2023-10-23T05:28:55.644Z,17.90
2023-10-23T05:31:23.820Z,14.20
2023-10-23T05:33:53.255Z,13.70
2023-10-23T05:36:21.570Z,15.30
2023-10-23T05:38:49.673Z,16.20
2023-10-23T05:41:17.803Z,17.50
2023-10-23T05:43:45.886Z,16.40
2023-10-23T05:46:14.174Z,20.90
2023-10-23T05:48:42.574Z,16.10
2023-10-23T05:51:10.769Z,17.40
2023-10-23T05:53:38.969Z,18.40
2023-10-23T05:56:07.948Z,19.60
2023-10-23T05:58:37.027Z,19.90
2023-10-23T06:01:09.905Z,17.40
2023-10-23T06:03:38.528Z,16.60
2023-10-23T06:06:07.434Z,17.50
2023-10-23T06:08:35.866Z,19.80
2023-10-23T06:11:04.323Z,20.00
2023-10-23T06:13:32.705Z,18.80
2023-10-23T06:16:04.397Z,19.90
2023-10-23T06:18:33.774Z,21.20
2023-10-23T06:21:06.662Z,17.00
2023-10-23T06:23:36.862Z,17.00
2023-10-23T06:26:08.960Z,20.90
2023-10-23T06:28:37.960Z,20.50
2023-10-23T06:31:10.947Z,23.10
2023-10-23T06:33:45.838Z,35.00
2023-10-23T06:36:14.021Z,33.50
2023-10-23T06:38:42.195Z,34.20
2023-10-23T06:41:10.384Z,27.40
2023-10-23T06:43:38.786Z,25.30
2023-10-23T06:46:07.644Z,19.80
2023-10-23T06:48:36.189Z,20.90
2023-10-23T06:51:05.256Z,19.30
2023-10-23T06:53:33.521Z,19.30
2023-10-23T06:56:01.698Z,17.90
2023-10-23T06:58:29.832Z,20.30
2023-10-23T07:00:58.246Z,17.70
2023-10-23T07:03:26.516Z,21.80
2023-10-23T07:05:54.927Z,21.20
2023-10-23T07:08:23.173Z,24.40
2023-10-23T07:10:53.180Z,27.90
2023-10-23T07:13:23.086Z,31.70
2023-10-23T07:15:52.366Z,24.80
2023-10-23T07:18:21.042Z,21.40
2023-10-23T07:20:54.742Z,23.50
2023-10-23T07:23:25.708Z,19.00
2023-10-23T07:26:12.377Z,25.10
2023-10-23T07:28:40.795Z,29.30
2023-10-23T07:31:10.750Z,28.10
2023-10-23T07:33:39.372Z,27.50
2023-10-23T07:36:10.351Z,28.70
2023-10-23T07:38:45.958Z,23.00
2023-10-23T07:41:14.480Z,20.50
2023-10-23T07:43:44.165Z,16.70
2023-10-23T07:46:17.444Z,18.00
2023-10-23T07:48:47.341Z,22.10
2023-10-23T07:51:15.999Z,20.50
2023-10-23T07:53:44.273Z,21.60
2023-10-23T07:56:15.910Z,21.40
2023-10-23T07:58:44.201Z,15.60
2023-10-23T08:01:13.943Z,12.00
2023-10-23T08:03:42.563Z,14.20
2023-10-23T08:06:12.369Z,17.50
2023-10-23T08:08:42.132Z,11.90
2023-10-23T08:11:13.351Z,10.60
2023-10-23T08:13:42.193Z,10.10
2023-10-23T08:16:10.610Z,9.70
2023-10-23T08:18:41.559Z,11.20
2023-10-23T08:21:18.251Z,10.10
2023-10-23T08:23:48.083Z,8.80
2023-10-23T08:26:16.787Z,11.60
2023-10-23T08:31:29.449Z,10.40
2023-10-23T08:34:03.415Z,9.80
2023-10-23T08:36:31.609Z,8.40
2023-10-23T08:39:00.772Z,8.90
2023-10-23T08:41:29.793Z,10.60
2023-10-23T08:43:58.014Z,9.00
2023-10-23T08:46:33.238Z,7.70
2023-10-23T08:49:03.211Z,11.10
2023-10-23T08:51:32.717Z,11.90
2023-10-23T08:54:12.429Z,9.40
2023-10-23T08:56:43.953Z,9.00
2023-10-23T08:59:15.423Z,8.50
2023-10-23T09:01:43.986Z,8.20
2023-10-23T09:04:13.251Z,9.00
2023-10-23T09:06:43.779Z,9.60
2023-10-23T09:09:13.043Z,6.10
2023-10-23T09:11:47.481Z,9.50
2023-10-23T09:14:44.293Z,7.20
2023-10-23T09:17:12.549Z,10.30
2023-10-23T09:19:42.652Z,11.30
2023-10-23T09:22:14.000Z,7.80
2023-10-23T09:24:42.780Z,8.60
2023-10-23T09:27:10.904Z,8.10
2023-10-23T09:29:39.270Z,10.80
2023-10-23T09:32:07.803Z,7.50
2023-10-23T09:34:42.918Z,7.20
2023-10-23T09:37:11.318Z,7.30
2023-10-23T09:39:41.363Z,6.20
2023-10-23T09:42:10.298Z,8.30
2023-10-23T09:44:40.180Z,7.70
2023-10-23T09:47:10.620Z,7.10
2023-10-23T09:49:41.930Z,8.60
2023-10-23T09:52:12.160Z,7.00
2023-10-23T09:54:42.814Z,9.60
2023-10-23T09:57:12.889Z,5.70
2023-10-23T09:59:50.054Z,6.50
2023-10-23T10:02:20.561Z,6.20
2023-10-23T10:04:54.159Z,8.80
2023-10-23T10:10:00.463Z,8.20
2023-10-23T10:12:29.986Z,7.60
2023-10-23T10:14:59.215Z,7.30
2023-10-23T10:17:28.987Z,8.30
2023-10-23T10:19:59.949Z,6.30
2023-10-23T10:22:29.682Z,6.60
2023-10-23T10:24:58.683Z,9.60
2023-10-23T10:27:27.564Z,9.60
2023-10-23T10:29:55.983Z,9.30
2023-10-23T10:32:27.233Z,7.50
2023-10-23T10:34:58.076Z,9.10
2023-10-23T10:37:29.573Z,9.70
2023-10-23T10:39:57.870Z,7.20
2023-10-23T10:42:27.399Z,9.60
2023-10-23T10:45:16.520Z,9.20
2023-10-23T10:47:52.866Z,9.40
2023-10-23T10:50:38.217Z,9.30
2023-10-23T10:53:07.793Z,8.10
2023-10-23T10:55:38.072Z,8.40
2023-10-23T10:58:07.903Z,7.80
2023-10-23T11:00:37.044Z,9.60
2023-10-23T11:03:07.048Z,6.60
2023-10-23T11:05:37.821Z,8.80
2023-10-23T11:08:06.346Z,8.10
2023-10-23T11:10:34.751Z,7.70
2023-10-23T11:13:03.493Z,7.50
2023-10-23T11:15:31.828Z,8.10
2023-10-23T11:18:00.043Z,6.30
2023-10-23T11:20:32.514Z,8.40
2023-10-23T11:23:00.991Z,8.40
2023-10-23T11:25:29.520Z,6.20
2023-10-23T11:27:57.662Z,5.20
2023-10-23T11:30:29.209Z,7.60
2023-10-23T11:32:58.194Z,4.80
2023-10-23T11:35:33.093Z,7.60
2023-10-23T11:38:03.702Z,5.10
2023-10-23T11:40:36.225Z,4.70
2023-10-23T11:43:05.057Z,5.40
2023-10-23T11:45:33.817Z,5.60
2023-10-23T11:48:02.164Z,5.80
2023-10-23T11:50:31.411Z,5.20
2023-10-23T11:52:59.655Z,4.40
2023-10-23T11:55:27.967Z,4.30
2023-10-23T11:57:56.930Z,5.10
2023-10-23T12:00:25.739Z,4.80
2023-10-23T12:02:54.748Z,5.40
2023-10-23T12:05:24.536Z,4.60
2023-10-23T12:07:54.822Z,6.10
2023-10-23T12:10:27.951Z,5.60
2023-10-23T12:12:57.088Z,4.50
2023-10-23T12:15:25.756Z,5.80
2023-10-23T12:17:54.245Z,4.80
2023-10-23T12:20:23.568Z,4.40
2023-10-23T12:22:53.371Z,5.60
2023-10-23T12:25:21.808Z,5.70
2023-10-23T12:27:50.122Z,6.30
2023-10-23T12:30:24.128Z,6.90
2023-10-23T12:33:15.297Z,4.70
2023-10-23T12:35:45.864Z,4.10
2023-10-23T12:38:14.117Z,4.10
2023-10-23T12:40:44.332Z,5.30
2023-10-23T12:43:12.938Z,5.10
2023-10-23T12:45:43.824Z,6.60
2023-10-23T12:48:12.109Z,3.60
2023-10-23T12:50:40.441Z,5.30
2023-10-23T12:53:12.301Z,10.60
2023-10-23T12:55:41.503Z,3.60
2023-10-23T12:58:09.755Z,4.80
2023-10-23T13:00:37.964Z,6.20
2023-10-23T13:03:06.186Z,4.40
2023-10-23T13:05:34.901Z,3.60
2023-10-23T13:08:03.131Z,5.20
2023-10-23T13:10:31.310Z,6.70
2023-10-23T13:12:59.452Z,5.50
2023-10-23T13:15:28.144Z,5.40
2023-10-23T13:17:57.571Z,5.10
2023-10-23T13:21:29.057Z,5.80
2023-10-23T13:23:14.070Z,3.20
2023-10-23T13:25:42.430Z,2.90
2023-10-23T13:28:11.144Z,3.40
2023-10-23T13:30:39.435Z,3.30
2023-10-23T13:33:08.143Z,4.30
2023-10-23T13:35:37.364Z,6.20
2023-10-23T13:38:05.549Z,3.40
2023-10-23T13:40:34.682Z,5.30
2023-10-23T13:43:03.046Z,5.10
2023-10-23T13:45:31.208Z,4.10
2023-10-23T13:47:59.367Z,4.60
2023-10-23T13:50:27.610Z,5.20
2023-10-23T13:52:55.799Z,3.90
2023-10-23T13:55:23.971Z,3.50
2023-10-23T13:57:52.431Z,3.20
2023-10-23T14:00:20.779Z,5.50
2023-10-23T14:02:48.961Z,3.50
2023-10-23T14:05:17.134Z,4.40
2023-10-23T14:07:47.197Z,3.80
2023-10-23T14:10:21.524Z,5.30
2023-10-23T14:12:52.868Z,4.90
2023-10-23T14:15:22.079Z,3.70
2023-10-23T14:17:50.491Z,3.50
2023-10-23T14:20:19.015Z,5.10
2023-10-23T14:22:47.170Z,7.30
2023-10-23T14:25:15.411Z,5.80
2023-10-23T14:27:43.608Z,5.20
2023-10-23T14:30:12.181Z,3.20
2023-10-23T14:32:40.473Z,5.80
2023-10-23T14:35:09.382Z,3.00
2023-10-23T14:37:37.825Z,4.40
2023-10-23T14:40:07.216Z,3.70
2023-10-23T14:42:35.356Z,3.00
2023-10-23T14:45:05.656Z,3.20
2023-10-23T14:47:33.954Z,5.30
2023-10-23T14:50:06.440Z,8.50
2023-10-23T14:52:36.452Z,3.00
2023-10-23T14:55:06.310Z,4.40
2023-10-23T14:57:34.527Z,4.60
2023-10-23T15:00:02.850Z,6.10
2023-10-23T15:02:31.126Z,6.30
2023-10-23T15:05:00.483Z,11.30
2023-10-23T15:07:28.703Z,6.70
2023-10-23T15:09:56.919Z,7.30
2023-10-23T15:12:27.369Z,8.30
2023-10-23T15:14:57.143Z,7.90
2023-10-23T15:17:25.520Z,9.40
2023-10-23T15:19:58.621Z,8.10
2023-10-23T15:22:27.203Z,7.50
2023-10-23T15:24:55.407Z,10.20
2023-10-23T15:27:23.656Z,10.50
2023-10-23T15:29:51.833Z,13.50
2023-10-23T15:32:19.994Z,24.60
2023-10-23T15:34:48.153Z,15.80
2023-10-23T15:37:17.750Z,14.00
2023-10-23T15:39:47.185Z,11.30
2023-10-23T15:42:15.364Z,15.50
2023-10-23T15:44:44.822Z,11.30
2023-10-23T15:47:13.774Z,12.00
2023-10-23T15:49:42.238Z,13.00
2023-10-23T15:52:10.513Z,18.50
2023-10-23T15:54:39.129Z,16.80
2023-10-23T15:57:07.439Z,17.20
2023-10-23T15:59:35.592Z,15.80
2023-10-23T16:02:04.034Z,19.60
2023-10-23T16:04:32.284Z,21.00
2023-10-23T16:07:00.592Z,24.50
2023-10-23T16:09:29.239Z,22.30
2023-10-23T16:12:09.844Z,22.40
2023-10-23T16:14:49.953Z,19.50
2023-10-23T16:17:24.854Z,23.60
2023-10-23T16:19:53.247Z,26.80
2023-10-23T16:22:21.357Z,25.30
2023-10-23T16:24:49.642Z,25.20
2023-10-23T16:27:18.717Z,29.00
2023-10-23T16:29:48.929Z,27.00
2023-10-23T16:32:18.741Z,26.00
2023-10-23T16:34:47.050Z,30.90
2023-10-23T16:37:15.346Z,24.60
2023-10-23T16:39:43.651Z,28.20
2023-10-23T16:42:11.785Z,17.90
2023-10-23T16:44:52.789Z,26.00
2023-10-23T16:47:24.699Z,24.10
2023-10-23T16:49:53.772Z,31.30
2023-10-23T16:52:22.116Z,28.20
2023-10-23T16:54:50.937Z,33.40
2023-10-23T16:57:19.812Z,32.00
2023-10-23T16:59:48.687Z,31.40
2023-10-23T17:02:16.965Z,40.20
2023-10-23T17:04:46.010Z,31.80
2023-10-23T17:07:15.174Z,31.30
2023-10-23T17:09:43.709Z,38.40
2023-10-23T17:12:12.007Z,38.10
2023-10-23T17:14:40.649Z,31.20
2023-10-23T17:17:09.969Z,32.60
2023-10-23T17:19:40.191Z,34.70
2023-10-23T17:22:09.579Z,32.50
2023-10-23T17:24:37.849Z,27.70
2023-10-23T17:27:06.012Z,31.50
2023-10-23T17:29:34.357Z,32.70
2023-10-23T17:32:04.049Z,29.50
2023-10-23T17:34:32.409Z,29.80
2023-10-23T17:37:00.617Z,29.30
2023-10-23T17:39:28.766Z,28.00
2023-10-23T17:41:56.969Z,26.10
2023-10-23T17:44:25.168Z,31.70
2023-10-23T17:46:55.069Z,26.00
2023-10-23T17:49:23.583Z,29.80
2023-10-23T17:51:52.020Z,30.70
2023-10-23T17:54:20.293Z,31.60
2023-10-23T17:56:48.425Z,28.40
2023-10-23T17:59:16.609Z,29.40
2023-10-23T18:02:03.811Z,32.90
2023-10-23T18:04:52.927Z,29.00
2023-10-23T18:07:21.630Z,29.40
2023-10-23T18:10:08.789Z,37.10
2023-10-23T18:12:58.589Z,30.10
2023-10-23T18:15:47.270Z,26.10
2023-10-23T18:18:15.964Z,31.60
2023-10-23T18:20:44.302Z,21.40
2023-10-23T18:23:12.463Z,27.80
2023-10-23T18:25:40.679Z,28.10
2023-10-23T18:28:08.900Z,33.10
2023-10-23T18:30:37.143Z,32.30
2023-10-23T18:33:05.415Z,28.50
2023-10-23T18:35:37.027Z,35.90
2023-10-23T18:38:05.705Z,30.10
2023-10-23T18:40:36.086Z,32.20
2023-10-23T18:43:05.033Z,38.70
2023-10-23T18:45:33.513Z,31.40
2023-10-23T18:48:03.251Z,31.00
2023-10-23T18:50:31.646Z,32.10
2023-10-23T18:53:01.712Z,30.30
2023-10-23T18:55:29.903Z,29.50
2023-10-23T18:57:58.162Z,28.20
2023-10-23T19:00:26.497Z,28.10
2023-10-23T19:02:54.894Z,28.30
2023-10-23T19:05:23.395Z,33.10
2023-10-23T19:07:51.584Z,31.00
2023-10-23T19:10:19.923Z,32.60
2023-10-23T19:12:48.186Z,30.80
2023-10-23T19:15:16.316Z,28.80
2023-10-23T19:17:45.240Z,29.50
2023-10-23T19:20:14.244Z,31.10
2023-10-23T19:22:43.070Z,32.00
2023-10-23T19:25:11.521Z,29.20
2023-10-23T19:27:40.640Z,28.70
2023-10-23T19:30:13.593Z,27.90
2023-10-23T19:32:42.546Z,28.20
2023-10-23T19:35:13.035Z,25.90
2023-10-23T19:37:42.058Z,27.10
2023-10-23T19:40:11.340Z,30.00
2023-10-23T19:42:44.012Z,23.70
2023-10-23T19:45:12.593Z,22.50
2023-10-23T19:47:41.148Z,28.30
2023-10-23T19:50:10.411Z,23.30
2023-10-23T19:52:39.416Z,21.60
2023-10-23T19:55:43.921Z,23.30
2023-10-23T19:57:57.805Z,21.90
2023-10-23T20:00:26.015Z,25.20
2023-10-23T20:02:55.786Z,23.00
2023-10-23T20:05:28.561Z,22.30
2023-10-23T20:07:59.764Z,23.20
2023-10-23T20:10:31.311Z,22.00
2023-10-23T20:13:00.306Z,30.30
2023-10-23T20:15:30.506Z,32.80
2023-10-23T20:17:59.665Z,24.20
2023-10-23T20:20:28.600Z,31.00
2023-10-23T20:22:56.837Z,29.40
2023-10-23T20:25:25.643Z,28.70
2023-10-23T20:27:53.885Z,25.40
2023-10-23T20:30:23.692Z,27.40
2023-10-23T20:32:51.989Z,27.60
2023-10-23T20:35:20.433Z,22.30
2023-10-23T20:37:48.646Z,27.10
2023-10-23T20:40:16.935Z,26.90
2023-10-23T20:42:45.096Z,23.20
2023-10-23T20:45:14.427Z,23.90
2023-10-23T20:47:42.618Z,29.80
2023-10-23T20:50:11.132Z,23.50
2023-10-23T20:52:39.658Z,25.40
2023-10-23T20:55:08.275Z,24.90
2023-10-23T20:57:36.528Z,22.60
2023-10-23T21:00:07.605Z,20.40
2023-10-23T21:02:37.634Z,21.40
2023-10-23T21:05:06.701Z,24.20
2023-10-23T21:07:35.632Z,23.60
2023-10-23T21:10:04.168Z,22.70
2023-10-23T21:12:32.331Z,21.40
2023-10-23T21:15:00.571Z,20.30
2023-10-23T21:17:28.836Z,24.00
2023-10-23T21:19:57.232Z,28.50
2023-10-23T21:22:25.402Z,22.00
2023-10-23T21:24:53.865Z,23.50
2023-10-23T21:27:22.545Z,22.30
2023-10-23T21:29:50.866Z,26.10
2023-10-23T21:32:19.151Z,22.20
2023-10-23T21:34:47.291Z,23.20
2023-10-23T21:37:15.431Z,24.10
2023-10-23T21:39:43.577Z,22.90
2023-10-23T21:42:11.748Z,23.90
2023-10-23T21:44:40.147Z,21.00
2023-10-23T21:47:08.593Z,23.20
2023-10-23T21:49:37.586Z,22.70
2023-10-23T21:52:06.602Z,19.00
2023-10-23T21:54:35.055Z,22.50
2023-10-23T21:57:23.025Z,24.30
2023-10-23T21:59:52.133Z,24.50
2023-10-23T22:02:20.974Z,26.00
2023-10-23T22:04:49.491Z,19.90
2023-10-23T22:07:17.894Z,20.30
2023-10-23T22:09:46.199Z,25.70
2023-10-23T22:12:14.721Z,22.00
2023-10-23T22:14:43.067Z,23.80
2023-10-23T22:17:11.352Z,20.70
2023-10-23T22:19:39.663Z,20.10
2023-10-23T22:22:08.007Z,19.50
2023-10-23T22:24:36.138Z,20.10
2023-10-23T22:27:04.469Z,20.30
2023-10-23T22:29:32.518Z,21.40
2023-10-23T22:32:00.776Z,17.60
2023-10-23T22:34:29.115Z,18.60
2023-10-23T22:37:46.386Z,20.20
2023-10-23T22:39:45.451Z,21.40
2023-10-23T22:42:13.728Z,19.80
2023-10-23T22:44:42.483Z,19.70
2023-10-23T22:47:10.862Z,21.00
2023-10-23T22:49:39.643Z,24.50
2023-10-23T22:52:08.557Z,21.10
2023-10-23T22:54:37.100Z,21.20
2023-10-23T22:57:07.516Z,20.40
2023-10-23T22:59:35.931Z,21.40
2023-10-23T23:02:04.447Z,24.10
2023-10-23T23:04:33.259Z,28.40
2023-10-23T23:07:03.417Z,24.70
2023-10-23T23:09:32.273Z,24.50
2023-10-23T23:12:00.722Z,24.80
2023-10-23T23:14:29.402Z,24.40
2023-10-23T23:17:03.873Z,26.40
2023-10-23T23:19:33.030Z,26.10
2023-10-23T23:22:08.475Z,25.40
2023-10-23T23:24:38.415Z,26.60
2023-10-23T23:27:06.769Z,27.10
2023-10-23T23:29:37.461Z,25.80
2023-10-23T23:32:05.741Z,21.80
2023-10-23T23:34:33.946Z,24.10
2023-10-23T23:37:02.144Z,23.00
2023-10-23T23:39:30.248Z,20.70
2023-10-23T23:41:58.344Z,24.00
2023-10-23T23:44:27.077Z,22.60
2023-10-23T23:46:57.619Z,23.30
2023-10-23T23:49:26.030Z,24.30
2023-10-23T23:51:54.402Z,24.50
2023-10-23T23:54:22.509Z,26.00
2023-10-23T23:56:51.631Z,25.00
2023-10-23T23:59:19.786Z,22.10
